Time;durP1;ratioP1;P1;durP2;ratioP2;P2;SDS_P1;SDS_P2;PMS_P1;PMS_P2;Temp;Humidity;BMP_temperature;BMP_pressure;BME280_temperature;BME280_humidity;BME280_pressure;Samples;Min_cycle;Max_cycle;Signal;HPM_P1;HPM_P2
2023/01/04 00:01:44;;;;;;;0.88;0.22;;;18.20;65.50;;;;;;7403916;19;19970;-58
2023/01/04 00:04:13;;;;;;;1.23;0.50;;;18.20;65.40;;;;;;7405782;19;19936;-59
2023/01/04 00:06:42;;;;;;;1.35;0.40;;;18.20;65.40;;;;;;7406494;19;19918;-58
2023/01/04 00:09:14;;;;;;;1.83;0.20;;;18.30;65.40;;;;;;7404921;19;19919;-58
2023/01/04 00:11:43;;;;;;;2.97;0.20;;;18.30;65.30;;;;;;7404353;19;19978;-59
2023/01/04 00:14:13;;;;;;;1.13;0.17;;;18.30;65.10;;;;;;7408086;19;19910;-58
2023/01/04 00:16:42;;;;;;;;;;;18.40;65.10;;;;;;7408678;19;19934;-59
2023/01/04 00:19:13;;;;;;;1.05;0.20;;;18.50;65.10;;;;;;7406406;19;19934;-58
2023/01/04 00:21:43;;;;;;;1.63;0.20;;;18.50;65.00;;;;;;7405638;19;19926;-59
2023/01/04 00:24:16;;;;;;;1.50;0.32;;;18.50;64.80;;;;;;7406092;19;19921;-58
2023/01/04 00:26:45;;;;;;;2.22;0.50;;;18.60;64.60;;;;;;7406069;19;19929;-59
2023/01/04 00:29:16;;;;;;;2.33;0.50;;;18.70;64.60;;;;;;7405474;19;19922;-58
2023/01/04 00:31:46;;;;;;;2.10;0.32;;;18.70;64.50;;;;;;7405460;19;20237;-58
2023/01/04 00:34:17;;;;;;;1.35;0.43;;;18.70;64.40;;;;;;7404985;19;19915;-58
2023/01/04 00:36:48;;;;;;;1.90;0.20;;;18.80;64.30;;;;;;7407615;19;19919;-58
2023/01/04 00:39:19;;;;;;;2.15;0.60;;;18.80;64.30;;;;;;7403884;19;19974;-59
2023/01/04 00:41:51;;;;;;;2.55;0.40;;;18.80;64.30;;;;;;7406759;19;19922;-58
2023/01/04 00:44:20;;;;;;;1.02;0.32;;;18.80;64.30;;;;;;7404710;19;19926;-58
2023/01/04 00:46:50;;;;;;;2.20;0.30;;;18.80;64.20;;;;;;7405399;19;19919;-59
2023/01/04 00:49:19;;;;;;;1.85;0.32;;;18.80;64.20;;;;;;7405796;19;19926;-58
2023/01/04 00:51:48;;;;;;;1.70;0.50;;;18.80;64.20;;;;;;7407115;19;19944;-59
2023/01/04 00:54:21;;;;;;;1.25;0.30;;;18.80;64.30;;;;;;7408454;19;19919;-59
2023/01/04 00:56:51;;;;;;;1.88;0.40;;;18.80;64.30;;;;;;7404553;19;19923;-59
2023/01/04 00:59:24;;;;;;;1.13;0.10;;;18.70;64.20;;;;;;7408093;19;19919;-58
2023/01/04 01:01:54;;;;;;;1.77;0.43;;;18.70;64.20;;;;;;7404945;19;19914;-58
2023/01/04 01:04:23;;;;;;;;;;;18.70;64.30;;;;;;7406844;19;20359;-58
2023/01/04 01:06:54;;;;;;;2.88;0.25;;;18.60;64.10;;;;;;7404080;19;19938;-58
2023/01/04 01:09:25;;;;;;;1.33;0.20;;;18.60;64.30;;;;;;7404364;19;19949;-58
2023/01/04 01:11:56;;;;;;;2.13;0.25;;;18.60;64.30;;;;;;7407260;19;20321;-58
2023/01/04 01:14:27;;;;;;;1.77;0.52;;;18.50;64.30;;;;;;7404694;19;19915;-58
2023/01/04 01:16:56;;;;;;;2.08;0.43;;;18.40;64.30;;;;;;7404402;19;19915;-58
2023/01/04 01:19:25;;;;;;;1.77;0.30;;;18.50;64.40;;;;;;7404433;19;19915;-58
2023/01/04 01:21:58;;;;;;;2.53;0.43;;;18.40;64.40;;;;;;7400356;19;19914;-59
2023/01/04 01:24:29;;;;;;;2.03;0.52;;;18.40;64.40;;;;;;7403869;19;19986;-59
2023/01/04 01:26:59;;;;;;;1.00;0.20;;;18.30;64.40;;;;;;7403847;19;20510;-58
2023/01/04 01:29:28;;;;;;;1.48;0.25;;;18.30;64.50;;;;;;7403740;19;20006;-58
2023/01/04 01:31:57;;;;;;;1.40;0.50;;;18.30;64.50;;;;;;7403529;19;19991;-58
2023/01/04 01:34:26;;;;;;;1.50;0.30;;;18.30;64.60;;;;;;7403157;19;19923;-58
2023/01/04 01:36:55;;;;;;;2.20;0.35;;;18.20;64.50;;;;;;7403503;19;19915;-58
2023/01/04 01:39:24;;;;;;;1.40;0.50;;;18.20;64.60;;;;;;7403334;19;19989;-58
2023/01/04 01:41:58;;;;;;;1.73;0.30;;;18.20;64.60;;;;;;7403515;19;19922;-58
2023/01/04 01:44:59;;;;;;;1.80;0.35;;;18.20;64.50;;;;;;7404700;19;20336;-58
2023/01/04 01:47:32;;;;;;;1.50;0.20;;;18.20;64.50;;;;;;7404844;19;19919;-58
2023/01/04 01:50:03;;;;;;;2.13;0.30;;;18.30;64.50;;;;;;7403571;19;19989;-58
2023/01/04 01:52:36;;;;;;;2.28;0.20;;;18.30;64.50;;;;;;7403083;19;19939;-58
2023/01/04 01:55:10;;;;;;;1.35;0.20;;;18.40;64.50;;;;;;7402838;19;19911;-58
2023/01/04 01:57:43;;;;;;;2.30;0.32;;;18.40;64.40;;;;;;7403222;19;19911;-58
2023/01/04 02:00:16;;;;;;;1.17;0.43;;;18.50;64.30;;;;;;7403372;19;19915;-58
2023/01/04 02:02:54;;;;;;;1.60;0.32;;;18.50;64.20;;;;;;7406587;19;20580;-58
2023/01/04 02:05:23;;;;;;;2.58;0.50;;;18.60;64.10;;;;;;7402473;19;20363;-58
2023/01/04 02:07:53;;;;;;;;;;;18.60;64.00;;;;;;7402239;19;20278;-58
2023/01/04 02:10:26;;;;;;;2.45;0.25;;;18.70;64.00;;;;;;7402493;19;19914;-59
2023/01/04 02:12:57;;;;;;;;;;;18.70;63.90;;;;;;7405032;19;20032;-58
2023/01/04 02:15:33;;;;;;;1.17;0.10;;;18.70;63.80;;;;;;7402274;19;19914;-58
2023/01/04 02:18:10;;;;;;;0.90;0.13;;;18.70;63.70;;;;;;7402626;19;19939;-58
2023/01/04 02:20:46;;;;;;;1.02;0.25;;;18.80;63.70;;;;;;7400299;19;19918;-58
2023/01/04 02:23:38;;;;;;;2.03;0.10;;;18.80;63.70;;;;;;7404603;19;19915;-59
2023/01/04 02:26:37;;;;;;;1.08;0.20;;;18.80;63.70;;;;;;7409313;19;19925;-58
2023/01/04 02:29:51;;;;;;;1.25;0.10;;;18.70;63.60;;;;;;7406083;19;19914;-59
2023/01/04 02:32:35;;;;;;;1.13;0.20;;;18.70;63.60;;;;;;7409043;19;19910;-58
2023/01/04 02:35:12;;;;;;;1.15;0.30;;;18.70;63.70;;;;;;7407242;19;20346;-58
2023/01/04 02:37:48;;;;;;;0.95;0.10;;;18.70;63.80;;;;;;7408413;19;19911;-58
2023/01/04 02:40:25;;;;;;;1.92;0.47;;;18.70;63.80;;;;;;7407492;19;19915;-58
2023/01/04 02:45:51;;;;;;;1.33;0.20;;;18.60;63.80;;;;;;7410903;19;19922;-58
2023/01/04 02:51:04;;;;;;;2.20;0.32;;;18.50;63.90;;;;;;7407937;19;20241;-58
2023/01/04 02:53:36;;;;;;;1.30;0.10;;;18.50;63.90;;;;;;7411964;19;19934;-59
2023/01/04 02:56:34;;;;;;;1.65;0.20;;;18.50;64.00;;;;;;7406520;19;19934;-58
2023/01/04 02:59:17;;;;;;;1.38;0.35;;;18.40;64.00;;;;;;7408405;19;19929;-58
2023/01/04 03:07:42;;;;;;;0.88;0.17;;;18.30;64.20;;;;;;7406889;19;19934;-59
2023/01/04 03:10:18;;;;;;;2.90;0.30;;;18.30;64.20;;;;;;7410452;19;19952;-58
2023/01/04 03:12:51;;;;;;;0.95;0.30;;;18.20;64.30;;;;;;7407548;19;20257;-59
2023/01/04 03:15:24;;;;;;;1.38;0.52;;;18.20;64.30;;;;;;7407912;19;19930;-59
2023/01/04 03:17:57;;;;;;;1.13;0.17;;;18.20;64.40;;;;;;7408377;19;19935;-59
2023/01/04 03:20:33;;;;;;;1.23;0.32;;;18.20;64.40;;;;;;7406185;19;19974;-58
2023/01/04 03:37:01;;;;;;;1.42;0.40;;;18.40;64.20;;;;;;7407366;19;19915;-58
2023/01/04 03:50:58;;;;;;;0.75;0.10;;;18.70;63.80;;;;;;7406639;19;19998;-59
2023/01/04 03:53:31;;;;;;;1.15;0.10;;;18.80;63.60;;;;;;7404943;19;20031;-59
2023/01/04 03:56:02;;;;;;;0.90;0.80;;;18.80;63.60;;;;;;7406632;19;19919;-58
2023/01/04 03:58:31;;;;;;;1.23;0.28;;;18.90;63.50;;;;;;7406640;19;19919;-58
2023/01/04 04:01:04;;;;;;;0.55;0.20;;;18.90;63.60;;;;;;7408737;19;19945;-58
2023/01/04 04:09:03;;;;;;;;;;;18.90;63.50;;;;;;7409686;19;19918;-59
2023/01/04 04:11:32;;;;;;;0.75;0.10;;;18.90;63.70;;;;;;7406120;19;20265;-58
2023/01/04 04:14:02;;;;;;;1.48;0.30;;;18.80;63.70;;;;;;7406336;19;19955;-58
2023/01/04 04:16:31;;;;;;;0.75;0.15;;;18.80;63.70;;;;;;7405907;19;20268;-58
2023/01/04 04:19:00;;;;;;;0.88;0.03;;;18.80;63.70;;;;;;7408648;19;20332;-58
2023/01/04 04:21:29;;;;;;;1.02;0.03;;;18.70;63.70;;;;;;7405627;19;20298;-58
2023/01/04 04:23:59;;;;;;;1.05;0.22;;;18.80;63.90;;;;;;7405916;19;19914;-58
2023/01/04 04:26:30;;;;;;;;;;;18.70;63.90;;;;;;7408030;19;19947;-58
2023/01/04 04:28:59;;;;;;;0.93;0.25;;;18.70;63.90;;;;;;7402562;19;19946;-59
2023/01/04 04:31:29;;;;;;;0.38;0.03;;;18.60;64.00;;;;;;7405299;19;19914;-59
2023/01/04 04:33:58;;;;;;;0.65;0.20;;;18.60;64.00;;;;;;7405555;19;20280;-58
2023/01/04 04:36:29;;;;;;;0.50;0.10;;;18.60;64.10;;;;;;7405620;19;19914;-59
2023/01/04 04:38:59;;;;;;;0.55;0.10;;;18.50;64.10;;;;;;7408350;19;19937;-58
2023/01/04 04:41:37;;;;;;;1.27;0.13;;;18.50;64.20;;;;;;7405717;19;20355;-58
2023/01/04 04:44:08;;;;;;;1.00;0.10;;;18.50;64.30;;;;;;7405317;19;19933;-58
2023/01/04 04:46:37;;;;;;;0.65;0.20;;;18.50;64.40;;;;;;7402986;19;19919;-58
2023/01/04 04:49:08;;;;;;;0.70;0.25;;;18.40;64.40;;;;;;7403604;19;19930;-58
2023/01/04 04:51:37;;;;;;;0.85;0.10;;;18.30;64.40;;;;;;7406636;19;19910;-58
2023/01/04 04:54:06;;;;;;;1.17;0.13;;;18.30;64.50;;;;;;7404709;19;20029;-58
2023/01/04 04:56:38;;;;;;;;;;;18.30;64.50;;;;;;7408039;19;19918;-58
2023/01/04 04:59:08;;;;;;;1.10;0.10;;;18.20;64.50;;;;;;7404989;19;19944;-58
2023/01/04 05:01:38;;;;;;;0.57;0.00;;;18.20;64.70;;;;;;7404960;19;19911;-58
2023/01/04 05:04:07;;;;;;;0.80;0.05;;;18.20;64.70;;;;;;7404897;19;19963;-59
2023/01/04 05:06:36;;;;;;;0.80;0.30;;;18.20;64.80;;;;;;7405832;19;19922;-58
2023/01/04 05:09:06;;;;;;;0.45;0.10;;;18.20;64.80;;;;;;7406137;19;19911;-59
2023/01/04 05:14:20;;;;;;;0.75;0.20;;;18.20;64.80;;;;;;7404644;19;19921;-58
2023/01/04 05:16:49;;;;;;;0.68;0.10;;;18.30;64.80;;;;;;7404375;19;19918;-58
2023/01/04 05:19:18;;;;;;;1.02;0.10;;;18.30;64.80;;;;;;7404110;19;19914;-58
2023/01/04 05:21:47;;;;;;;1.10;0.40;;;18.40;64.80;;;;;;7403433;19;19922;-58
2023/01/04 05:24:17;;;;;;;0.60;0.13;;;18.40;64.70;;;;;;7407098;19;19918;-58
2023/01/04 05:26:49;;;;;;;0.68;0.10;;;18.40;64.60;;;;;;7406237;19;20021;-58
2023/01/04 05:32:00;;;;;;;0.50;0.00;;;18.60;64.50;;;;;;7403817;19;20013;-58
2023/01/04 05:34:29;;;;;;;1.15;0.20;;;18.70;65.10;;;;;;7403809;19;19934;-58
2023/01/04 05:36:58;;;;;;;1.38;0.25;;;18.70;64.30;;;;;;7403977;19;19922;-58
2023/01/04 05:39:30;;;;;;;0.77;0.28;;;18.80;64.30;;;;;;7407352;19;19938;-59
2023/01/04 05:44:43;;;;;;;1.00;0.20;;;18.80;64.20;;;;;;7403339;19;19911;-58
2023/01/04 05:47:17;;;;;;;0.65;0.22;;;18.90;64.20;;;;;;7403260;19;19918;-58
2023/01/04 05:49:46;;;;;;;0.57;0.22;;;18.80;64.20;;;;;;7401488;19;19925;-58
2023/01/04 05:52:15;;;;;;;0.70;0.10;;;18.90;64.30;;;;;;7402944;19;19918;-59
2023/01/04 05:54:45;;;;;;;0.70;0.30;;;18.80;64.30;;;;;;7402768;19;19934;-58
2023/01/04 05:57:16;;;;;;;0.70;0.15;;;18.80;64.30;;;;;;7404926;19;19947;-58
2023/01/04 05:59:46;;;;;;;0.75;0.10;;;18.80;64.40;;;;;;7411748;19;19942;-59
2023/01/04 06:02:17;;;;;;;0.70;0.10;;;18.70;64.40;;;;;;7409719;19;19914;-58
2023/01/04 06:04:47;;;;;;;0.30;0.10;;;18.70;64.50;;;;;;7409342;19;19986;-58
2023/01/04 06:07:16;;;;;;;0.70;0.10;;;18.70;64.50;;;;;;7409773;19;20568;-59
2023/01/04 06:09:49;;;;;;;0.52;0.10;;;18.70;64.70;;;;;;7407250;19;20337;-58
2023/01/04 06:12:21;;;;;;;0.47;0.13;;;18.60;64.60;;;;;;7409150;19;19922;-58
2023/01/04 06:14:50;;;;;;;0.52;0.20;;;18.60;64.70;;;;;;7409598;19;19915;-58
2023/01/04 06:17:40;;;;;;;1.00;0.22;;;18.60;64.80;;;;;;7411350;19;20355;-58
2023/01/04 06:20:11;;;;;;;0.45;0.20;;;18.60;64.90;;;;;;7409426;19;20300;-58
2023/01/04 06:22:41;;;;;;;0.50;0.10;;;18.50;64.90;;;;;;7407694;19;19919;-58
2023/01/04 06:25:12;;;;;;;0.60;0.35;;;18.50;65.00;;;;;;7409101;19;19986;-58
2023/01/04 06:27:44;;;;;;;0.70;0.17;;;18.50;65.10;;;;;;7411964;19;19946;-62
2023/01/04 06:30:13;;;;;;;0.70;0.32;;;18.50;65.20;;;;;;7406881;19;20324;-58
2023/01/04 06:32:42;;;;;;;0.30;0.00;;;18.40;65.20;;;;;;7409193;19;19922;-58
2023/01/04 06:35:11;;;;;;;0.82;0.82;;;18.40;65.30;;;;;;7408168;19;19927;-58
2023/01/04 06:37:40;;;;;;;0.43;0.00;;;18.30;65.30;;;;;;7409365;19;19924;-58
2023/01/04 06:40:11;;;;;;;0.82;0.15;;;18.30;65.40;;;;;;7408668;19;19924;-58
2023/01/04 06:42:48;;;;;;;0.35;0.00;;;18.30;65.50;;;;;;7408150;19;20376;-58
2023/01/04 06:45:18;;;;;;;0.57;0.10;;;18.20;65.50;;;;;;7410346;19;20324;-58
2023/01/04 06:47:48;;;;;;;0.90;0.10;;;18.20;65.60;;;;;;7411362;19;20346;-58
2023/01/04 06:50:17;;;;;;;0.50;0.00;;;18.20;65.60;;;;;;7406703;19;19936;-58
2023/01/04 06:52:46;;;;;;;0.30;0.00;;;18.20;65.70;;;;;;7411815;19;19936;-58
2023/01/04 06:55:15;;;;;;;0.63;0.00;;;18.20;65.60;;;;;;7408485;19;19954;-58
2023/01/04 06:57:47;;;;;;;0.82;0.13;;;18.30;65.70;;;;;;7408271;19;19915;-58
2023/01/04 07:00:18;;;;;;;0.38;0.05;;;18.30;65.70;;;;;;7408391;19;19934;-58
2023/01/04 07:02:47;;;;;;;0.45;0.05;;;18.30;65.60;;;;;;7407763;19;19922;-59
2023/01/04 07:05:18;;;;;;;0.50;0.08;;;18.40;65.60;;;;;;7411288;19;19952;-58
2023/01/04 07:07:47;;;;;;;0.30;0.20;;;18.40;65.60;;;;;;7410210;19;19934;-58
2023/01/04 07:10:16;;;;;;;0.60;0.00;;;18.50;65.50;;;;;;7404929;19;19918;-58
2023/01/04 07:12:48;;;;;;;1.52;0.32;;;18.50;65.40;;;;;;7408042;19;19919;-58
2023/01/04 07:15:17;;;;;;;0.57;0.20;;;18.60;65.40;;;;;;7407805;19;19919;-59
2023/01/04 07:17:49;;;;;;;0.60;0.45;;;18.60;65.30;;;;;;7408066;19;19917;-58
2023/01/04 07:20:19;;;;;;;0.30;0.03;;;18.70;65.20;;;;;;7407143;19;19925;-59
2023/01/04 07:22:48;;;;;;;0.75;0.03;;;18.80;65.20;;;;;;7405683;19;19922;-59
2023/01/04 07:25:20;;;;;;;0.45;0.13;;;18.80;65.20;;;;;;7410350;19;19938;-59
2023/01/04 07:27:55;;;;;;;0.40;0.15;;;18.90;65.10;;;;;;7407380;19;19978;-58
2023/01/04 07:30:26;;;;;;;0.50;0.25;;;18.90;65.10;;;;;;7405857;19;19914;-58
2023/01/04 07:33:00;;;;;;;0.30;0.00;;;18.90;65.10;;;;;;7407401;19;19907;-59
2023/01/04 07:35:30;;;;;;;0.73;0.25;;;18.90;65.10;;;;;;7407145;19;19922;-58
2023/01/04 07:38:02;;;;;;;0.60;0.10;;;18.90;65.10;;;;;;7407482;19;19921;-58
2023/01/04 07:40:31;;;;;;;0.35;0.10;;;18.80;65.20;;;;;;7408866;19;19914;-58
2023/01/04 07:43:03;;;;;;;0.32;0.15;;;18.90;65.20;;;;;;7411140;19;19922;-58
2023/01/04 07:45:34;;;;;;;0.55;0.10;;;18.80;65.20;;;;;;7406598;19;19938;-58
2023/01/04 07:48:05;;;;;;;0.90;0.00;;;18.80;65.90;;;;;;7405634;19;19919;-58
2023/01/04 07:50:39;;;;;;;0.35;0.00;;;18.80;65.40;;;;;;7405098;19;20022;-58
2023/01/04 07:53:08;;;;;;;0.50;0.22;;;18.80;65.50;;;;;;7408706;19;19915;-58
2023/01/04 07:55:37;;;;;;;0.38;0.08;;;18.70;65.50;;;;;;7408861;19;19938;-58
2023/01/04 07:58:10;;;;;;;0.38;0.00;;;18.70;65.60;;;;;;7409060;19;19923;-58
2023/01/04 08:00:39;;;;;;;0.45;0.10;;;18.70;65.70;;;;;;7408811;19;19926;-58
2023/01/04 08:03:08;;;;;;;0.30;0.13;;;18.60;65.70;;;;;;7409380;19;19926;-58
2023/01/04 08:05:41;;;;;;;0.43;0.00;;;18.60;65.80;;;;;;7406758;19;19989;-58
2023/01/04 08:08:11;;;;;;;0.30;0.10;;;18.60;65.90;;;;;;7408465;19;19935;-58
2023/01/04 08:10:40;;;;;;;0.45;0.05;;;18.60;66.00;;;;;;7404728;19;19919;-58
2023/01/04 08:13:12;;;;;;;0.32;0.22;;;18.50;66.00;;;;;;7405915;19;20337;-58
2023/01/04 08:15:42;;;;;;;0.50;0.00;;;18.50;66.10;;;;;;7408033;19;20264;-58
2023/01/04 08:18:11;;;;;;;0.50;0.40;;;18.50;66.20;;;;;;7408516;19;19932;-58
2023/01/04 08:20:52;;;;;;;0.40;0.10;;;18.40;66.20;;;;;;7406234;19;19914;-59
2023/01/04 08:23:21;;;;;;;0.50;0.20;;;18.40;66.30;;;;;;7408446;19;19914;-58
2023/01/04 08:25:50;;;;;;;0.40;0.03;;;18.40;66.40;;;;;;7405809;19;20268;-58
2023/01/04 08:28:22;;;;;;;0.10;0.00;;;18.30;66.40;;;;;;7406033;19;19918;-58
2023/01/04 08:30:51;;;;;;;0.40;0.10;;;18.30;66.50;;;;;;7403751;19;19915;-58
2023/01/04 08:33:20;;;;;;;0.50;0.20;;;18.30;66.60;;;;;;7408611;19;19938;-58
2023/01/04 08:35:49;;;;;;;0.40;0.13;;;18.20;66.60;;;;;;7408351;19;19918;-58
2023/01/04 08:38:19;;;;;;;0.50;0.00;;;18.20;66.70;;;;;;7405721;19;19918;-59
2023/01/04 08:40:49;;;;;;;0.52;0.10;;;18.20;66.80;;;;;;7405127;19;19994;-58
2023/01/04 08:43:19;;;;;;;0.22;0.08;;;18.30;66.80;;;;;;7405881;19;19923;-58
2023/01/04 08:45:50;;;;;;;0.20;0.00;;;18.30;66.80;;;;;;7405513;19;19918;-58
2023/01/04 08:48:20;;;;;;;0.80;0.10;;;18.30;66.70;;;;;;7406370;19;20340;-59
2023/01/04 08:50:50;;;;;;;0.30;0.10;;;18.30;66.70;;;;;;7407213;19;19922;-58
2023/01/04 08:53:19;;;;;;;0.43;0.10;;;18.40;66.70;;;;;;7405401;19;19923;-59
2023/01/04 08:55:52;;;;;;;0.30;0.00;;;18.40;66.60;;;;;;7250906;19;19915;-59
2023/01/04 08:58:23;;;;;;;0.98;0.10;;;18.50;67.10;;;;;;7400952;19;19947;-59
2023/01/04 09:00:55;;;;;;;0.40;0.00;;;18.50;66.50;;;;;;7402649;19;19919;-59
2023/01/04 09:03:24;;;;;;;1.83;0.10;;;18.60;66.40;;;;;;7406061;19;19945;-59
2023/01/04 09:05:53;;;;;;;5.72;0.20;;;18.70;66.40;;;;;;7400549;19;20366;-59
2023/01/04 09:08:23;;;;;;;9.00;0.82;;;18.80;66.40;;;;;;7406530;19;19994;-58
2023/01/04 09:10:52;;;;;;;10.23;0.60;;;18.80;66.40;;;;;;7403779;19;19918;-58
2023/01/04 09:13:22;;;;;;;7.25;0.30;;;18.80;66.30;;;;;;7408276;19;19922;-58
2023/01/04 09:15:55;;;;;;;7.63;0.20;;;18.90;66.40;;;;;;7398166;19;20314;-58
2023/01/04 09:18:24;;;;;;;6.30;0.38;;;18.90;66.40;;;;;;7403363;19;19925;-58
2023/01/04 09:20:53;;;;;;;10.15;0.63;;;18.90;66.50;;;;;;7403245;19;20336;-59
2023/01/04 09:23:23;;;;;;;1.63;0.35;;;18.90;66.50;;;;;;7403430;19;19919;-58
2023/01/04 09:25:53;;;;;;;7.03;0.20;;;18.90;66.60;;;;;;7405247;19;19997;-58
2023/01/04 09:28:22;;;;;;;4.72;0.35;;;18.90;66.70;;;;;;7404628;19;19914;-59
2023/01/04 09:30:51;;;;;;;7.18;0.35;;;18.90;66.80;;;;;;7401415;19;19942;-58
2023/01/04 09:33:23;;;;;;;2.75;0.17;;;18.90;66.90;;;;;;7402906;19;19940;-59
2023/01/04 09:35:52;;;;;;;5.35;0.10;;;18.80;66.90;;;;;;7400881;19;19933;-58
2023/01/04 09:38:24;;;;;;;3.53;0.30;;;18.80;67.10;;;;;;7403841;19;19922;-58
2023/01/04 09:40:58;;;;;;;5.13;0.30;;;18.70;67.10;;;;;;7404492;19;20295;-58
2023/01/04 09:43:44;;;;;;;8.18;0.20;;;18.80;67.30;;;;;;7403988;19;19923;-59
2023/01/04 09:46:18;;;;;;;2.50;0.22;;;18.70;67.30;;;;;;7403456;19;19994;-59
2023/01/04 09:48:54;;;;;;;3.95;0.30;;;18.70;67.40;;;;;;7402323;19;20470;-59
2023/01/04 09:51:30;;;;;;;5.95;0.40;;;18.70;67.50;;;;;;7400305;19;19927;-59
2023/01/04 09:54:05;;;;;;;4.57;0.25;;;18.70;67.60;;;;;;7402320;19;19930;-59
2023/01/04 09:56:50;;;;;;;2.08;0.45;;;18.60;67.70;;;;;;7400981;19;19935;-59
2023/01/04 09:59:25;;;;;;;1.50;0.15;;;18.60;67.70;;;;;;7402286;19;20209;-58
2023/01/04 10:01:59;;;;;;;5.15;0.20;;;18.60;67.80;;;;;;7403282;19;19940;-59
2023/01/04 10:04:42;;;;;;;5.03;0.10;;;18.60;68.00;;;;;;7400112;19;19922;-59
2023/01/04 10:07:19;;;;;;;1.10;0.22;;;18.60;68.10;;;;;;7401778;19;20018;-59
2023/01/04 10:09:48;;;;;;;1.27;0.40;;;18.50;68.20;;;;;;7400434;19;19926;-58
2023/01/04 10:12:32;;;;;;;1.25;0.45;;;18.50;68.20;;;;;;7402954;19;20036;-58
2023/01/04 10:15:16;;;;;;;4.82;0.57;;;18.50;68.40;;;;;;7400831;19;19929;-58
2023/01/04 10:18:01;;;;;;;3.25;0.20;;;18.40;68.50;;;;;;7401262;19;19910;-58
2023/01/04 10:21:02;;;;;;;3.28;0.20;;;18.40;68.60;;;;;;7403056;19;19914;-58
2023/01/04 10:23:42;;;;;;;1.42;0.08;;;18.40;68.70;;;;;;7399862;19;20284;-59
2023/01/04 10:26:16;;;;;;;4.15;0.10;;;18.30;68.70;;;;;;7402006;19;19955;-58
2023/01/04 10:29:09;;;;;;;2.28;0.10;;;18.30;68.80;;;;;;7403836;19;19923;-59
2023/01/04 10:31:46;;;;;;;4.07;0.28;;;18.30;68.90;;;;;;7398595;19;19922;-58
2023/01/04 10:34:25;;;;;;;1.35;0.40;;;18.30;68.90;;;;;;7402833;19;19945;-58
2023/01/04 10:37:00;;;;;;;1.08;0.20;;;18.30;69.00;;;;;;7400762;19;19914;-58
2023/01/04 10:39:34;;;;;;;3.22;0.03;;;18.30;68.90;;;;;;7404037;19;19949;-58
2023/01/04 10:42:12;;;;;;;1.00;0.20;;;18.40;68.90;;;;;;7401529;19;19922;-58
2023/01/04 10:44:51;;;;;;;1.38;0.10;;;18.40;68.90;;;;;;7405634;19;19922;-58
2023/01/04 10:47:28;;;;;;;3.63;0.20;;;18.40;68.80;;;;;;7409032;19;20385;-58
2023/01/04 10:50:02;;;;;;;1.90;0.30;;;18.50;68.80;;;;;;7407361;19;19923;-58
2023/01/04 10:52:38;;;;;;;1.95;0.10;;;18.50;68.80;;;;;;7407912;19;19918;-58
2023/01/04 10:55:14;;;;;;;3.05;0.30;;;18.60;68.80;;;;;;7408131;19;20286;-59
2023/01/04 10:57:48;;;;;;;1.85;0.10;;;18.60;68.50;;;;;;7407578;19;19955;-59
2023/01/04 11:00:22;;;;;;;1.02;0.03;;;18.70;68.50;;;;;;7408847;19;19970;-59
2023/01/04 11:02:59;;;;;;;2.15;0.10;;;18.70;68.30;;;;;;7406417;19;20310;-59
2023/01/04 11:05:34;;;;;;;2.78;0.13;;;18.80;68.30;;;;;;7408566;19;19955;-59
2023/01/04 11:08:13;;;;;;;1.05;0.10;;;18.90;68.30;;;;;;7406637;19;19915;-58
2023/01/04 11:10:46;;;;;;;1.33;0.10;;;18.90;68.20;;;;;;7406895;19;19926;-58
2023/01/04 11:13:16;;;;;;;1.63;0.20;;;18.90;68.20;;;;;;7407558;19;19918;-59
2023/01/04 11:15:46;;;;;;;2.85;0.43;;;19.00;68.20;;;;;;7405966;19;19926;-59
2023/01/04 11:18:16;;;;;;;1.80;0.10;;;19.00;68.20;;;;;;7408709;19;19942;-58
2023/01/04 11:20:47;;;;;;;1.65;0.28;;;19.00;68.20;;;;;;7408525;19;19918;-58
2023/01/04 11:23:22;;;;;;;1.30;0.30;;;18.90;68.20;;;;;;7408652;19;20348;-58
2023/01/04 11:25:55;;;;;;;1.13;0.22;;;18.90;68.30;;;;;;7404690;19;19925;-58
2023/01/04 11:28:29;;;;;;;2.13;0.20;;;18.90;68.30;;;;;;7407332;19;19922;-58
2023/01/04 11:31:06;;;;;;;2.42;0.20;;;18.90;68.40;;;;;;7405562;19;19922;-58
2023/01/04 11:33:53;;;;;;;3.53;0.30;;;18.90;68.50;;;;;;7407177;19;19919;-59
2023/01/04 11:36:38;;;;;;;3.15;0.20;;;18.80;68.60;;;;;;7408385;19;19922;-58
2023/01/04 11:39:21;;;;;;;2.47;0.30;;;18.80;68.70;;;;;;7406954;19;19926;-59
2023/01/04 11:41:58;;;;;;;2.30;0.20;;;18.80;68.80;;;;;;7408539;19;20348;-59
2023/01/04 11:44:28;;;;;;;2.58;0.20;;;18.80;68.90;;;;;;7407920;19;20336;-59
2023/01/04 11:47:19;;;;;;;1.67;0.25;;;18.70;68.80;;;;;;7407540;19;19930;-59
2023/01/04 11:49:49;;;;;;;2.45;0.20;;;18.70;69.00;;;;;;7404049;19;19923;-58
2023/01/04 11:52:32;;;;;;;2.30;0.22;;;18.70;69.00;;;;;;7406382;19;19918;-59
2023/01/04 11:55:19;;;;;;;2.58;0.22;;;18.70;69.10;;;;;;7406951;19;20340;-58
2023/01/04 11:57:49;;;;;;;1.88;0.40;;;18.60;69.20;;;;;;7405122;19;20006;-58
2023/01/04 12:00:19;;;;;;;1.60;0.25;;;18.60;69.20;;;;;;7408532;19;19922;-59
2023/01/04 12:03:15;;;;;;;1.90;0.10;;;18.60;69.30;;;;;;7407925;19;19922;-59
2023/01/04 12:05:45;;;;;;;3.35;0.30;;;18.60;69.40;;;;;;7403939;19;19942;-59
2023/01/04 12:08:29;;;;;;;1.80;0.43;;;18.50;69.40;;;;;;7407445;19;20344;-59
2023/01/04 12:11:03;;;;;;;3.45;0.32;;;18.50;69.50;;;;;;7405074;19;20329;-59
2023/01/04 12:13:34;;;;;;;3.05;0.45;;;18.50;69.60;;;;;;7408106;19;19937;-59
2023/01/04 12:16:14;;;;;;;2.50;0.15;;;18.40;69.60;;;;;;7404572;19;20036;-59
2023/01/04 12:18:46;;;;;;;2.22;0.20;;;18.40;69.70;;;;;;7404918;19;19911;-59
2023/01/04 12:21:20;;;;;;;1.83;0.15;;;18.40;69.80;;;;;;7405967;19;19937;-59
2023/01/04 12:23:50;;;;;;;4.22;0.47;;;18.30;69.80;;;;;;7408213;19;19919;-58
2023/01/04 12:26:23;;;;;;;2.10;0.20;;;18.30;69.90;;;;;;7405518;19;20403;-59
2023/01/04 12:28:57;;;;;;;2.22;0.40;;;18.30;70.00;;;;;;7405584;19;19926;-58
2023/01/04 12:31:35;;;;;;;3.20;0.45;;;18.30;70.00;;;;;;7404939;19;19921;-59
2023/01/04 12:34:34;;;;;;;2.40;0.38;;;18.30;70.10;;;;;;7401503;19;19937;-59
2023/01/04 12:37:12;;;;;;;2.92;0.40;;;18.30;70.10;;;;;;7403191;19;19922;-58
2023/01/04 12:39:46;;;;;;;2.97;0.20;;;18.30;70.00;;;;;;7402933;19;19954;-58
2023/01/04 12:42:25;;;;;;;2.53;0.30;;;18.30;70.00;;;;;;7408045;19;19919;-59
2023/01/04 12:45:24;;;;;;;4.30;0.57;;;18.40;70.10;;;;;;7405329;19;19925;-58
2023/01/04 12:51:06;;;;;;;3.42;0.28;;;18.50;70.00;;;;;;7403364;19;19922;-59
2023/01/04 12:53:52;;;;;;;2.70;0.60;;;18.60;70.00;;;;;;7403712;19;19919;-58
2023/01/04 12:56:23;;;;;;;1.83;0.30;;;18.70;70.00;;;;;;7405660;19;19978;-59
2023/01/04 12:59:13;;;;;;;4.95;0.52;;;18.70;69.70;;;;;;7402168;19;19914;-58
2023/01/04 13:02:19;;;;;;;2.40;0.45;;;18.80;69.70;;;;;;7404525;19;19923;-58
2023/01/04 13:05:36;;;;;;;4.88;0.28;;;18.90;69.60;;;;;;7405283;19;19918;-58
2023/01/04 13:08:25;;;;;;;3.05;0.20;;;18.90;69.70;;;;;;7399996;19;19919;-58
2023/01/04 13:11:42;;;;;;;1.77;0.22;;;18.90;69.50;;;;;;7400717;19;19979;-58
2023/01/04 13:14:40;;;;;;;2.67;0.20;;;18.90;69.60;;;;;;7404379;19;19933;-58
2023/01/04 13:17:30;;;;;;;2.50;0.20;;;18.90;69.60;;;;;;7401476;19;19974;-58
2023/01/04 13:20:00;;;;;;;3.20;0.50;;;18.90;69.70;;;;;;7403436;19;19930;-58
2023/01/04 13:22:34;;;;;;;3.92;0.50;;;18.90;69.70;;;;;;7404026;19;19929;-58
2023/01/04 13:25:05;;;;;;;4.30;0.30;;;18.80;69.70;;;;;;7404372;19;19915;-59
2023/01/04 13:27:34;;;;;;;3.63;0.52;;;18.90;69.80;;;;;;7402723;19;19974;-59
2023/01/04 13:30:27;;;;;;;2.15;0.22;;;18.80;69.90;;;;;;7402523;19;20260;-58
2023/01/04 13:32:57;;;;;;;2.75;0.20;;;18.80;70.00;;;;;;7401864;19;20340;-58
2023/01/04 13:35:26;;;;;;;3.25;0.30;;;18.80;70.70;;;;;;7402268;19;19978;-58
2023/01/04 13:37:56;;;;;;;2.75;0.50;;;18.80;70.10;;;;;;7402477;19;20268;-58
2023/01/04 13:40:28;;;;;;;2.00;0.57;;;18.70;70.20;;;;;;7401997;19;20360;-58
2023/01/04 13:43:23;;;;;;;3.50;0.25;;;18.80;70.30;;;;;;7403425;19;19911;-58
2023/01/04 13:46:02;;;;;;;2.47;0.25;;;18.70;70.40;;;;;;7406341;19;19922;-59
2023/01/04 13:48:37;;;;;;;1.92;0.40;;;18.70;70.50;;;;;;7403989;19;19922;-58
2023/01/04 13:51:15;;;;;;;2.65;0.40;;;18.70;70.50;;;;;;7402023;19;19930;-58
2023/01/04 13:53:55;;;;;;;2.72;0.50;;;18.60;70.50;;;;;;7403333;19;19923;-58
2023/01/04 13:56:27;;;;;;;1.75;0.40;;;18.60;70.50;;;;;;7401936;19;19931;-58
2023/01/04 13:58:58;;;;;;;4.55;0.75;;;18.60;70.60;;;;;;7403625;19;20345;-58
2023/01/04 14:01:32;;;;;;;3.60;0.38;;;18.60;70.70;;;;;;7403228;19;19965;-58
2023/01/04 14:04:06;;;;;;;3.58;0.43;;;18.60;70.80;;;;;;7401069;19;19915;-58
2023/01/04 14:06:56;;;;;;;2.08;0.85;;;18.50;70.80;;;;;;7400297;19;19929;-59
2023/01/04 14:09:29;;;;;;;5.35;0.85;;;18.50;71.00;;;;;;7398942;19;20474;-58
2023/01/04 14:12:01;;;;;;;2.97;0.30;;;18.50;71.00;;;;;;7401042;19;19926;-58
2023/01/04 14:14:49;;;;;;;6.50;0.55;;;18.50;71.10;;;;;;7401857;19;19986;-59
2023/01/04 14:17:31;;;;;;;5.13;0.57;;;18.40;71.20;;;;;;7399694;19;19928;-58